Time;durP1;ratioP1;P1;durP2;ratioP2;P2;SDS_P1;SDS_P2;PMS_P1;PMS_P2;Temp;Humidity;BMP_temperature;BMP_pressure;BME280_temperature;BME280_humidity;BME280_pressure;Samples;Min_cycle;Max_cycle;Signal;HPM_P1;HPM_P2
2023/04/16 00:03:00;;;;;;;17.42;12.18;;;;;;;6.65;95.46;100839.33;1801581;79;21754;-84
2023/04/16 00:06:07;;;;;;;23.67;10.63;;;;;;;6.69;95.52;100835.34;1802232;79;21208;-83
2023/04/16 00:09:13;;;;;;;17.45;11.85;;;;;;;6.69;95.22;100839.42;1802678;79;21223;-83
2023/04/16 00:12:18;;;;;;;18.98;11.22;;;;;;;6.87;94.50;100843.20;1801512;79;21211;-83
2023/04/16 00:15:24;;;;;;;19.12;10.38;;;;;;;6.84;94.47;100847.55;1802407;79;21184;-83
2023/04/16 00:18:29;;;;;;;20.05;9.80;;;;;;;6.78;94.29;100837.23;1802575;79;21254;-83
2023/04/16 00:21:35;;;;;;;21.80;9.03;;;;;;;6.76;93.97;100841.08;1802802;79;21175;-83
2023/04/16 00:24:41;;;;;;;16.32;9.10;;;;;;;6.72;94.10;100836.41;1802582;79;21790;-83
2023/04/16 00:27:48;;;;;;;16.95;8.90;;;;;;;6.68;94.20;100839.54;1801392;79;21215;-83
2023/04/16 00:30:55;;;;;;;30.10;8.28;;;;;;;6.66;93.83;100843.27;1802531;79;21175;-83
2023/04/16 00:34:00;;;;;;;19.15;7.95;;;;;;;6.64;92.76;100833.55;1801135;78;21804;-83
2023/04/16 00:37:06;;;;;;;14.87;8.18;;;;;;;6.54;92.79;100840.78;1801794;79;21171;-83
2023/04/16 00:40:13;;;;;;;13.43;8.55;;;;;;;6.49;92.77;100833.53;1802707;79;21221;-84
2023/04/16 00:43:20;;;;;;;16.05;8.70;;;;;;;6.40;93.04;100840.18;1802643;79;21167;-83
2023/04/16 00:46:30;;;;;;;17.05;8.65;;;;;;;6.40;93.30;100837.46;1802395;79;21199;-83
2023/04/16 00:49:36;;;;;;;19.70;10.38;;;;;;;6.28;93.83;100831.75;1802604;79;21231;-84
2023/04/16 00:52:43;;;;;;;17.55;8.68;;;;;;;6.27;94.23;100829.18;1802703;79;21148;-83
2023/04/16 00:55:50;;;;;;;19.80;8.25;;;;;;;6.28;94.06;100831.75;1802514;79;21726;-83
2023/04/16 00:58:56;;;;;;;10.18;8.30;;;;;;;6.25;93.92;100826.58;1802572;79;21222;-83
2023/04/16 01:02:02;;;;;;;15.25;8.13;;;;;;;6.26;93.74;100822.03;1802519;79;21175;-83
2023/04/16 01:05:10;;;;;;;15.48;8.25;;;;;;;6.21;93.50;100827.88;1802313;79;21211;-83
2023/04/16 01:08:27;;;;;;;15.90;9.38;;;;;;;6.14;93.76;100826.67;1801331;79;21179;-83
2023/04/16 01:11:33;;;;;;;18.37;8.65;;;;;;;6.07;93.71;100829.09;1780684;79;21214;-83
2023/04/16 01:14:39;;;;;;;16.15;8.15;;;;;;;5.98;93.97;100829.89;1801144;79;21218;-83
2023/04/16 01:17:45;;;;;;;14.40;8.50;;;;;;;5.96;93.97;100822.86;1801113;78;21265;-83
2023/04/16 01:20:51;;;;;;;13.65;8.20;;;;;;;6.03;93.62;100828.12;1800999;79;21156;-82
2023/04/16 01:23:56;;;;;;;14.58;9.13;;;;;;;5.95;93.62;100827.43;1802527;79;21214;-83
2023/04/16 01:27:05;;;;;;;14.40;8.25;;;;;;;5.96;93.95;100833.72;1802330;79;21208;-83
2023/04/16 01:30:12;;;;;;;10.20;7.78;;;;;;;5.85;94.25;100834.13;1781039;79;21188;-83
2023/04/16 01:33:21;;;;;;;12.30;8.68;;;;;;;5.78;94.67;100834.28;1781876;78;21203;-83
2023/04/16 01:36:26;;;;;;;14.33;8.45;;;;;;;5.65;95.15;100828.22;1801051;79;21152;-83
2023/04/16 01:39:32;;;;;;;18.55;8.68;;;;;;;5.61;95.49;100830.33;1799651;79;21197;-83
2023/04/16 01:42:38;;;;;;;12.15;8.45;;;;;;;5.52;96.17;100824.33;1796843;80;21794;-84
2023/04/16 01:45:44;;;;;;;12.63;8.58;;;;;;;5.48;96.27;100822.01;1796717;80;21175;-84
2023/04/16 01:48:49;;;;;;;16.30;8.50;;;;;;;5.40;96.70;100822.65;1795393;79;21239;-84
2023/04/16 01:51:55;;;;;;;20.62;10.43;;;;;;;5.36;96.90;100815.76;1796659;80;21168;-83
2023/04/16 01:55:02;;;;;;;15.90;9.33;;;;;;;5.36;97.01;100807.62;1796347;80;21437;-84
2023/04/16 01:58:09;;;;;;;17.92;8.88;;;;;;;5.41;97.01;100810.83;1796016;80;21172;-84
2023/04/16 02:01:16;;;;;;;15.40;9.23;;;;;;;5.37;97.21;100809.37;1796663;80;22433;-84
2023/04/16 02:04:22;;;;;;;19.12;8.58;;;;;;;5.46;96.49;100805.87;1795900;78;21204;-84
2023/04/16 02:07:30;;;;;;;16.93;9.30;;;;;;;5.34;97.07;100811.83;1795331;80;21234;-83
2023/04/16 02:10:37;;;;;;;18.48;8.95;;;;;;;5.37;97.26;100811.58;1796650;80;21175;-83
2023/04/16 02:13:43;;;;;;;14.45;9.00;;;;;;;5.33;97.37;100814.19;1796258;80;21156;-83
2023/04/16 02:16:49;;;;;;;17.75;8.85;;;;;;;5.33;97.26;100810.12;1796135;80;21470;-83
2023/04/16 02:19:57;;;;;;;18.67;10.70;;;;;;;5.38;97.26;100810.58;1793866;79;21254;-83
2023/04/16 02:23:06;;;;;;;18.02;10.18;;;;;;;5.53;96.32;100810.27;1796467;80;21187;-83
2023/04/16 02:26:12;;;;;;;15.32;9.25;;;;;;;5.32;96.77;100816.54;1796501;80;21688;-84
2023/04/16 02:29:20;;;;;;;16.52;9.88;;;;;;;5.30;97.20;100820.36;1795318;80;21203;-84
2023/04/16 02:32:28;;;;;;;15.72;9.33;;;;;;;5.27;97.29;100809.75;1796612;80;21738;-84
2023/04/16 02:35:34;;;;;;;18.05;8.78;;;;;;;5.25;97.33;100815.32;1795451;78;21254;-84
2023/04/16 02:38:39;;;;;;;17.30;9.10;;;;;;;5.23;97.40;100821.39;1796020;80;21172;-84
2023/04/16 02:41:45;;;;;;;12.23;8.63;;;;;;;5.22;97.48;100825.56;1777047;78;21275;-84
2023/04/16 02:44:51;;;;;;;16.12;8.90;;;;;;;5.16;97.57;100826.95;1770744;81;21160;-84
2023/04/16 02:47:50;;;;;;;11.10;9.05;;;;;;;5.27;97.39;100827.39;1769266;81;21208;-83
2023/04/16 02:50:43;;;;;;;12.37;8.83;;;;;;;5.32;96.87;100830.10;1769915;79;21250;-83
2023/04/16 02:53:50;;;;;;;18.25;9.85;;;;;;;5.37;96.89;100831.92;1771133;81;21176;-83
2023/04/16 02:56:57;;;;;;;12.25;8.58;;;;;;;5.34;96.70;100830.82;1770914;81;21168;-83
2023/04/16 03:00:07;;;;;;;19.62;9.35;;;;;;;5.09;97.99;100844.73;1769684;81;21243;-83
2023/04/16 03:03:10;;;;;;;25.30;9.35;;;;;;;5.12;98.30;100843.10;1770817;81;21164;-83
2023/04/16 03:06:16;;;;;;;18.27;9.23;;;;;;;5.09;98.44;100856.44;1770599;80;21153;-83
2023/04/16 03:09:20;;;;;;;20.32;9.68;;;;;;;5.12;98.35;100858.02;1769299;80;21259;-83
2023/04/16 03:12:26;;;;;;;15.18;9.33;;;;;;;5.12;98.70;100868.36;1769492;81;21239;-83
2023/04/16 03:15:33;;;;;;;19.12;9.83;;;;;;;5.22;98.54;100867.14;1769618;81;21176;-83
2023/04/16 03:18:39;;;;;;;16.02;9.15;;;;;;;5.18;98.60;100878.37;1769566;81;21164;-83
2023/04/16 03:21:45;;;;;;;16.48;9.23;;;;;;;5.35;98.36;100874.58;1770862;81;21168;-83
2023/04/16 03:24:51;;;;;;;15.83;9.75;;;;;;;5.36;97.96;100874.97;1769564;80;21179;-83
2023/04/16 03:27:52;;;;;;;11.35;9.25;;;;;;;5.55;97.51;100865.25;1771040;81;21176;-84
2023/04/16 03:31:00;;;;;;;18.57;9.68;;;;;;;5.52;97.21;100860.95;1771112;81;21223;-83
2023/04/16 03:34:05;;;;;;;14.33;8.90;;;;;;;5.61;97.00;100862.03;1771084;81;21153;-84
2023/04/16 03:37:10;;;;;;;15.80;9.28;;;;;;;5.70;96.90;100880.25;1770820;81;21168;-84
2023/04/16 03:40:16;;;;;;;13.15;8.83;;;;;;;5.72;96.51;100874.68;1769797;79;21231;-84
2023/04/16 03:43:23;;;;;;;19.20;9.50;;;;;;;5.87;95.46;100884.21;1794467;78;21203;-83
2023/04/16 03:46:28;;;;;;;14.95;8.53;;;;;;;5.99;95.04;100883.70;1796781;80;21207;-83
2023/04/16 03:49:34;;;;;;;13.75;8.68;;;;;;;6.16;94.10;100876.28;1795239;80;21207;-83
2023/04/16 03:52:41;;;;;;;14.43;8.60;;;;;;;6.26;93.42;100877.22;1796760;80;21172;-83
2023/04/16 03:55:48;;;;;;;18.07;8.68;;;;;;;6.33;93.34;100878.39;1796533;80;21258;-83
2023/04/16 03:58:54;;;;;;;14.13;9.85;;;;;;;6.31;93.22;100879.53;1796829;80;21176;-83
2023/04/16 04:01:59;;;;;;;18.32;9.23;;;;;;;6.27;92.76;100883.02;1795319;80;21171;-83
2023/04/16 04:05:06;;;;;;;11.65;8.83;;;;;;;6.28;92.36;100881.16;1795325;80;21176;-83
2023/04/16 04:08:12;;;;;;;19.98;8.75;;;;;;;6.32;92.13;100890.76;1796786;80;21179;-83
2023/04/16 04:11:18;;;;;;;12.07;8.48;;;;;;;6.44;91.43;100888.80;1796238;79;21199;-83
2023/04/16 04:14:23;;;;;;;11.85;8.25;;;;;;;6.40;91.24;100897.25;1796769;80;21223;-83
2023/04/16 04:17:29;;;;;;;13.90;7.65;;;;;;;6.51;90.85;100894.93;1796537;80;21172;-83
2023/04/16 04:20:36;;;;;;;12.45;8.85;;;;;;;6.53;90.30;100892.06;1795803;80;21171;-84
2023/04/16 04:23:43;;;;;;;11.70;7.92;;;;;;;6.66;90.30;100894.06;1796875;80;21710;-84
2023/04/16 04:26:51;;;;;;;13.05;7.83;;;;;;;6.75;89.90;100910.05;1795937;78;21204;-83
2023/04/16 04:29:56;;;;;;;13.55;8.63;;;;;;;6.82;88.44;100907.13;1795359;80;21187;-84
2023/04/16 04:33:02;;;;;;;14.13;8.03;;;;;;;6.79;88.40;100909.64;1795320;80;21225;-84
2023/04/16 04:36:09;;;;;;;14.98;8.60;;;;;;;6.91;88.77;100910.38;1795212;80;21168;-84
2023/04/16 04:39:09;;;;;;;13.25;8.43;;;;;;;7.01;88.14;100912.66;1796889;80;21168;-84
2023/04/16 04:42:08;;;;;;;15.38;8.85;;;;;;;7.00;87.84;100915.50;1795990;78;21204;-84
2023/04/16 04:45:14;;;;;;;16.25;8.53;;;;;;;7.00;87.39;100915.50;1802373;79;21175;-84
2023/04/16 04:48:25;;;;;;;9.75;7.83;;;;;;;7.05;87.00;100911.86;1802543;79;21398;-84
2023/04/16 04:51:30;;;;;;;18.15;8.58;;;;;;;7.26;86.17;100912.64;1801287;79;21258;-84
2023/04/16 04:54:40;;;;;;;9.83;7.53;;;;;;;7.29;85.62;100909.65;1802588;79;21168;-84
2023/04/16 04:57:47;;;;;;;13.43;7.95;;;;;;;7.25;85.66;100919.09;1801856;79;21840;-84
2023/04/16 05:00:53;;;;;;;13.65;7.47;;;;;;;7.12;86.14;100914.40;1801791;79;21175;-84
2023/04/16 05:04:00;;;;;;;12.05;7.80;;;;;;;7.09;86.42;100907.87;1802719;79;21155;-84
2023/04/16 05:07:06;;;;;;;14.50;7.75;;;;;;;7.12;85.26;100906.23;1802698;79;21198;-84
2023/04/16 05:10:14;;;;;;;11.33;7.62;;;;;;;7.05;85.85;100903.70;1802274;79;21789;-84
2023/04/16 05:13:20;;;;;;;10.10;7.20;;;;;;;7.13;86.08;100901.15;1801646;78;21322;-84
2023/04/16 05:16:27;;;;;;;10.80;7.35;;;;;;;7.35;85.85;100905.00;1802892;79;21203;-84
2023/04/16 05:19:25;;;;;;;13.88;7.35;;;;;;;7.38;84.90;100897.03;1803491;79;21163;-83
2023/04/16 05:22:31;;;;;;;18.48;7.00;;;;;;;7.23;84.31;100899.30;1802840;79;21175;-83
2023/04/16 05:25:30;;;;;;;12.78;7.60;;;;;;;7.37;84.44;100898.89;1802872;79;21175;-84
2023/04/16 05:28:37;;;;;;;13.15;6.45;;;;;;;7.55;82.96;100907.73;1801553;79;21227;-83
2023/04/16 05:31:42;;;;;;;10.68;6.53;;;;;;;7.74;81.92;100911.82;1801723;79;21148;-83
2023/04/16 05:34:49;;;;;;;14.10;6.42;;;;;;;7.85;81.17;100904.85;1802729;79;21175;-83
2023/04/16 05:37:55;;;;;;;10.75;6.33;;;;;;;7.86;80.57;100901.66;1802671;79;21171;-83
2023/04/16 05:41:01;;;;;;;14.93;7.55;;;;;;;7.88;80.56;100903.72;1802139;79;21159;-83
2023/04/16 05:44:06;;;;;;;12.37;7.25;;;;;;;7.99;81.43;100904.91;1800567;78;21191;-83
2023/04/16 05:47:12;;;;;;;14.07;6.00;;;;;;;8.21;80.30;100903.74;1802582;79;21168;-83
2023/04/16 05:50:18;;;;;;;21.95;6.40;;;;;;;8.23;78.47;100899.50;1803085;79;21219;-84
2023/04/16 05:53:24;;;;;;;16.00;6.15;;;;;;;8.18;78.04;100913.56;1802787;79;21167;-83
2023/04/16 05:56:31;;;;;;;14.50;5.75;;;;;;;8.00;78.68;100900.32;1803063;79;21227;-83
2023/04/16 05:59:36;;;;;;;12.13;5.90;;;;;;;8.08;80.85;100890.92;1803208;79;21144;-83
2023/04/16 06:02:41;;;;;;;10.88;5.25;;;;;;;8.33;80.75;100902.58;1801921;79;21722;-84
2023/04/16 06:05:46;;;;;;;16.37;5.25;;;;;;;8.47;79.51;100900.39;1803507;79;21156;-83
2023/04/16 06:08:54;;;;;;;7.33;5.25;;;;;;;8.54;78.59;100916.02;1803290;79;21151;-83
2023/04/16 06:11:52;;;;;;;7.03;4.60;;;;;;;8.60;77.41;100914.56;1802965;79;21202;-83
2023/04/16 06:14:57;;;;;;;9.58;5.20;;;;;;;8.53;76.72;100929.31;1802936;79;21155;-83
2023/04/16 06:18:02;;;;;;;9.58;4.67;;;;;;;8.49;78.09;100928.39;1802877;79;21171;-83
2023/04/16 06:21:08;;;;;;;10.18;5.00;;;;;;;8.75;77.57;100936.28;1802994;79;21167;-83
2023/04/16 06:24:15;;;;;;;10.43;4.28;;;;;;;8.89;77.03;100922.63;1802961;79;21156;-84
2023/04/16 06:27:20;;;;;;;6.55;4.40;;;;;;;9.11;74.84;100923.59;1802846;79;21692;-83
2023/04/16 06:30:25;;;;;;;10.85;4.78;;;;;;;9.21;73.97;100929.00;1802864;79;21112;-84
2023/04/16 06:33:30;;;;;;;8.55;4.47;;;;;;;9.24;74.19;100935.53;1802829;79;21211;-83
2023/04/16 06:36:37;;;;;;;8.75;3.98;;;;;;;9.33;73.83;100934.61;1802548;79;21171;-84
2023/04/16 06:39:42;;;;;;;7.75;3.85;;;;;;;9.39;74.37;100940.82;1802334;79;21188;-84
2023/04/16 06:42:47;;;;;;;7.17;4.00;;;;;;;9.20;72.99;100942.30;1801565;79;21174;-84
2023/04/16 06:45:52;;;;;;;7.15;3.62;;;;;;;9.30;74.49;100944.47;1797507;79;22539;-84
2023/04/16 06:48:58;;;;;;;15.93;4.72;;;;;;;9.37;74.24;100948.83;1796669;80;21172;-84
2023/04/16 06:52:03;;;;;;;8.83;3.60;;;;;;;9.51;75.58;100959.23;1796258;80;21830;-83
2023/04/16 06:55:08;;;;;;;7.55;3.83;;;;;;;9.70;74.36;100950.04;1781012;80;21168;-83
2023/04/16 06:58:06;;;;;;;11.83;3.85;;;;;;;9.83;73.00;100947.75;1795118;80;21214;-83
2023/04/16 07:01:12;;;;;;;9.85;3.70;;;;;;;9.82;72.58;100943.83;1795242;80;21731;-83
2023/04/16 07:04:18;;;;;;;7.53;4.65;;;;;;;9.97;73.19;100960.90;1796663;80;21745;-84
2023/04/16 07:07:24;;;;;;;8.83;3.55;;;;;;;10.18;71.76;100955.60;1796701;80;21167;-84
2023/04/16 07:10:30;;;;;;;8.20;4.03;;;;;;;10.04;72.32;100957.53;1796444;80;21167;-84
2023/04/16 07:13:28;;;;;;;10.15;4.10;;;;;;;9.96;70.72;100957.80;1795099;78;21263;-84
2023/04/16 07:16:26;;;;;;;5.83;3.17;;;;;;;9.92;70.72;100963.73;1796615;80;21778;-83
2023/04/16 07:19:29;;;;;;;9.08;3.90;;;;;;;9.88;71.04;100959.11;1796604;80;21711;-83
2023/04/16 07:22:32;;;;;;;11.25;3.37;;;;;;;9.92;70.51;100954.16;1796269;80;21172;-84
2023/04/16 07:25:38;;;;;;;12.37;4.15;;;;;;;9.98;70.32;100958.52;1796735;80;22423;-83
2023/04/16 07:28:45;;;;;;;8.25;3.55;;;;;;;10.07;69.07;100953.09;1796646;79;21215;-83
2023/04/16 07:31:51;;;;;;;8.80;3.30;;;;;;;10.10;70.06;100946.81;1796803;80;21223;-83
2023/04/16 07:34:57;;;;;;;7.62;3.25;;;;;;;10.30;69.17;100937.94;1796634;80;21172;-84
2023/04/16 07:37:56;;;;;;;8.28;3.25;;;;;;;10.35;69.74;100936.98;1796685;80;21160;-84
2023/04/16 07:40:48;;;;;;;8.25;3.60;;;;;;;10.68;69.92;100926.23;1796782;80;21156;-84
2023/04/16 07:43:34;;;;;;;8.35;3.12;;;;;;;10.80;67.42;100924.09;1795752;80;21715;-83
2023/04/16 07:46:39;;;;;;;6.75;2.60;;;;;;;10.72;66.73;100933.95;1798177;79;21191;-83
2023/04/16 07:49:46;;;;;;;5.50;3.10;;;;;;;10.75;66.76;100929.53;1802565;79;21176;-84
2023/04/16 07:52:53;;;;;;;5.47;3.00;;;;;;;10.67;67.03;100924.52;1802197;79;21207;-84
2023/04/16 07:55:58;;;;;;;8.30;3.30;;;;;;;10.78;66.46;100923.41;1802501;79;21167;-83
2023/04/16 07:59:03;;;;;;;6.62;2.85;;;;;;;10.72;66.31;100929.84;1801040;79;21710;-84
2023/04/16 08:02:10;;;;;;;6.10;2.92;;;;;;;10.82;67.05;100920.19;1802771;79;21159;-84
2023/04/16 08:05:16;;;;;;;9.10;3.47;;;;;;;10.98;65.55;100920.25;1802975;79;21175;-83
2023/04/16 08:08:22;;;;;;;13.78;3.08;;;;;;;11.06;65.82;100921.32;1802753;79;21164;-84
2023/04/16 08:11:28;;;;;;;13.93;3.55;;;;;;;11.18;65.61;100922.20;1802045;79;21211;-84
2023/04/16 08:14:33;;;;;;;7.05;2.90;;;;;;;11.15;65.93;100925.78;1801160;78;21207;-84
2023/04/16 08:17:39;;;;;;;6.28;2.83;;;;;;;11.39;66.03;100927.26;1802696;79;21139;-83
2023/04/16 08:20:45;;;;;;;4.45;2.77;;;;;;;11.44;65.30;100924.02;1802564;79;21175;-84
2023/04/16 08:23:44;;;;;;;9.65;3.15;;;;;;;11.64;63.38;100924.57;1802163;79;21171;-84
2023/04/16 08:26:50;;;;;;;6.47;2.77;;;;;;;11.50;63.34;100914.60;1802613;79;21277;-84
2023/04/16 08:29:58;;;;;;;8.28;3.08;;;;;;;11.50;65.94;100912.38;1801544;78;21699;-84
2023/04/16 08:33:04;;;;;;;6.65;2.70;;;;;;;11.61;65.15;100913.42;1802166;79;21199;-83
2023/04/16 08:36:10;;;;;;;8.03;3.55;;;;;;;11.41;65.30;100916.98;1802681;79;21148;-84
2023/04/16 08:39:15;;;;;;;8.93;3.40;;;;;;;11.50;65.31;100906.39;1802776;79;21516;-84
2023/04/16 08:42:39;;;;;;;11.25;2.98;;;;;;;11.59;67.45;100906.41;1802670;79;21786;-84
2023/04/16 08:45:47;;;;;;;5.67;2.35;;;;;;;11.68;64.88;100891.70;1802359;78;21214;-84
2023/04/16 08:48:55;;;;;;;13.78;3.30;;;;;;;11.69;67.66;100897.52;1795629;78;21212;-84
2023/04/16 08:52:01;;;;;;;7.20;3.02;;;;;;;11.79;65.49;100891.36;1795190;80;21168;-84
2023/04/16 08:55:16;;;;;;;31.40;4.33;;;;;;;11.96;65.23;100897.75;1795223;80;21211;-84
2023/04/16 08:58:30;;;;;;;6.75;3.90;;;;;;;11.87;65.11;100905.63;1796652;80;21825;-84
2023/04/16 09:01:36;;;;;;;8.20;3.10;;;;;;;11.99;64.61;100898.75;1795804;80;21864;-84
2023/04/16 09:04:42;;;;;;;12.50;3.50;;;;;;;11.95;66.07;100896.01;1795605;80;21156;-84
2023/04/16 09:07:48;;;;;;;10.10;2.62;;;;;;;12.08;66.44;100900.98;1781507;80;21152;-84
2023/04/16 09:10:52;;;;;;;14.35;3.05;;;;;;;12.32;65.43;100904.23;1780648;80;21815;-84
2023/04/16 09:13:59;;;;;;;5.72;2.50;;;;;;;12.42;65.23;100898.03;1796487;80;21196;-84
2023/04/16 09:17:04;;;;;;;5.10;3.20;;;;;;;12.45;64.47;100898.55;1795741;79;21191;-84
2023/04/16 09:20:15;;;;;;;6.95;2.92;;;;;;;12.48;64.20;100900.95;1796577;80;21149;-84
2023/04/16 09:23:21;;;;;;;6.17;2.77;;;;;;;12.45;64.46;100888.09;1795248;80;21171;-84
2023/04/16 09:26:28;;;;;;;6.92;2.83;;;;;;;12.52;66.40;100891.87;1796634;80;21172;-84
2023/04/16 09:29:43;;;;;;;11.12;3.08;;;;;;;12.65;65.62;100887.18;1796652;80;21171;-84
2023/04/16 09:32:49;;;;;;;7.03;2.50;;;;;;;12.78;63.61;100891.61;1796794;80;21152;-84
2023/04/16 09:35:59;;;;;;;8.70;3.02;;;;;;;12.68;62.70;100884.09;1794878;80;21242;-84
2023/04/16 09:39:04;;;;;;;6.28;3.02;;;;;;;12.70;62.39;100884.77;1796630;80;21168;-84
2023/04/16 09:42:11;;;;;;;6.60;2.77;;;;;;;12.69;63.09;100887.17;1796587;80;21172;-84
2023/04/16 09:45:17;;;;;;;11.85;2.95;;;;;;;12.76;61.30;100886.30;1795319;80;21478;-84
2023/04/16 09:48:34;;;;;;;5.95;2.72;;;;;;;12.84;63.99;100886.77;1795944;80;21204;-83
2023/04/16 09:51:44;;;;;;;5.37;2.85;;;;;;;12.99;61.62;100891.88;1796367;78;21199;-83
2023/04/16 09:54:53;;;;;;;;;;;;;;;12.86;63.30;100882.50;1799048;80;21212;-83
2023/04/16 09:58:08;;;;;;;5.12;2.58;;;;;;;12.88;61.56;100905.98;1795216;80;20595;-83
2023/04/16 10:01:18;;;;;;;6.80;2.20;;;;;;;13.08;63.60;100887.70;1796767;80;21176;-84
2023/04/16 10:04:25;;;;;;;5.75;2.55;;;;;;;13.13;60.12;100888.05;1796643;80;21215;-84
2023/04/16 10:07:35;;;;;;;7.58;3.00;;;;;;;13.28;62.52;100880.80;1796016;78;21187;-84
2023/04/16 10:10:41;;;;;;;10.20;3.52;;;;;;;13.18;60.28;100882.88;1796763;80;21291;-84
2023/04/16 10:13:47;;;;;;;4.65;2.35;;;;;;;13.25;59.55;100894.36;1796840;80;21171;-84
2023/04/16 10:16:53;;;;;;;3.47;2.52;;;;;;;13.28;58.39;100884.91;1796717;80;21172;-84
2023/04/16 10:20:00;;;;;;;10.20;2.62;;;;;;;13.21;62.09;100888.84;1796302;80;21771;-84
2023/04/16 10:22:54;;;;;;;9.08;2.92;;;;;;;13.39;61.78;100884.50;1795118;78;21271;-84
2023/04/16 10:26:01;;;;;;;9.53;2.55;;;;;;;13.42;59.31;100884.14;1794895;80;21222;-84
2023/04/16 10:29:08;;;;;;;6.12;2.87;;;;;;;13.51;59.27;100880.31;1796143;80;21223;-84
2023/04/16 10:32:12;;;;;;;10.70;3.08;;;;;;;13.62;59.03;100918.03;1796150;80;21176;-84
2023/04/16 10:35:27;;;;;;;7.72;2.50;;;;;;;13.74;59.52;100883.59;1795903;80;21223;-84
2023/04/16 10:38:34;;;;;;;11.57;3.05;;;;;;;13.94;59.10;100880.68;1796247;78;21263;-84
2023/04/16 10:41:39;;;;;;;10.35;3.27;;;;;;;13.98;56.58;100865.52;1796731;80;21219;-83
2023/04/16 10:44:44;;;;;;;10.98;2.60;;;;;;;13.95;57.25;100880.16;1796465;80;21874;-84
2023/04/16 10:47:50;;;;;;;4.12;2.60;;;;;;;13.94;60.16;100875.70;1796683;80;21176;-84
2023/04/16 10:51:03;;;;;;;8.40;2.35;;;;;;;14.04;58.86;100880.42;1799929;79;21750;-84
2023/04/16 10:54:16;;;;;;;7.78;2.72;;;;;;;14.06;57.61;100872.30;1801407;78;21251;-84
2023/04/16 10:57:26;;;;;;;5.25;2.62;;;;;;;14.11;57.04;100872.27;1802877;79;21175;-84
2023/04/16 11:00:32;;;;;;;6.95;2.80;;;;;;;14.20;56.78;100872.53;1802641;79;21176;-83
2023/04/16 11:03:40;;;;;;;5.90;2.50;;;;;;;14.18;56.07;100856.22;1801386;79;21170;-84
2023/04/16 11:06:46;;;;;;;6.22;2.35;;;;;;;14.18;56.68;100866.38;1801856;79;21164;-84
2023/04/16 11:10:13;;;;;;;8.80;2.60;;;;;;;14.26;57.29;100869.06;1802832;79;21222;-84
2023/04/16 11:13:13;;;;;;;5.78;2.58;;;;;;;14.33;54.54;100859.00;1803117;79;21160;-84
2023/04/16 11:16:20;;;;;;;5.12;2.50;;;;;;;14.13;55.45;100857.83;1801110;79;21786;-84
2023/04/16 11:19:26;;;;;;;6.90;2.72;;;;;;;14.08;55.06;100859.77;1802914;79;21250;-84
2023/04/16 11:22:30;;;;;;;11.03;2.47;;;;;;;14.04;56.43;100861.17;1803107;78;21151;-84
2023/04/16 11:25:37;;;;;;;5.17;2.60;;;;;;;14.04;56.42;100857.05;1802871;79;21187;-84
2023/04/16 11:28:43;;;;;;;7.53;2.30;;;;;;;14.09;55.06;100851.84;1803421;79;21167;-84
2023/04/16 11:31:50;;;;;;;7.08;2.47;;;;;;;14.29;57.63;100846.66;1803138;79;21218;-84
2023/04/16 11:34:58;;;;;;;5.33;2.40;;;;;;;14.48;55.35;100842.00;1802704;79;21171;-83
2023/04/16 11:38:06;;;;;;;6.40;2.30;;;;;;;14.73;55.08;100847.25;1802696;78;21227;-83
2023/04/16 11:41:12;;;;;;;7.78;2.30;;;;;;;14.87;53.54;100838.62;1802818;79;21171;-84
2023/04/16 11:44:30;;;;;;;6.78;2.15;;;;;;;14.94;54.82;100834.92;1802531;79;21199;-83
2023/04/16 11:47:38;;;;;;;2.55;2.00;;;;;;;14.70;52.24;100842.11;1801447;79;21179;-83
2023/04/16 11:50:44;;;;;;;6.60;2.37;;;;;;;14.67;50.83;100828.19;1791629;78;21207;-83
2023/04/16 11:54:00;;;;;;;5.72;2.17;;;;;;;14.72;50.82;100833.13;1770770;79;21238;-84
2023/04/16 11:57:08;;;;;;;4.72;1.95;;;;;;;14.74;50.72;100833.81;1770271;81;22348;-84
2023/04/16 12:00:15;;;;;;;5.87;2.10;;;;;;;14.79;50.26;100824.45;1769646;81;21176;-83
2023/04/16 12:03:23;;;;;;;4.60;2.27;;;;;;;14.75;50.40;100830.00;1769859;81;21164;-83
2023/04/16 12:06:31;;;;;;;6.78;2.35;;;;;;;14.73;49.89;100816.96;1767149;81;21739;-83
2023/04/16 12:09:36;;;;;;;7.53;2.00;;;;;;;14.77;50.47;100831.53;1761505;79;21180;-84
2023/04/16 12:12:42;;;;;;;5.80;2.02;;;;;;;14.84;49.33;100813.71;1738023;82;21236;-84
2023/04/16 12:16:01;;;;;;;8.68;2.58;;;;;;;14.91;50.47;100810.50;1739781;82;21790;-83
2023/04/16 12:19:02;;;;;;;10.28;2.40;;;;;;;15.01;49.85;100805.57;1740343;82;21232;-83
2023/04/16 12:21:56;;;;;;;10.30;2.40;;;;;;;14.95;49.26;100817.87;1740555;82;21205;-83
2023/04/16 12:24:43;;;;;;;11.03;2.35;;;;;;;14.95;49.56;100810.45;1739634;82;21201;-83
2023/04/16 12:27:53;;;;;;;6.67;2.12;;;;;;;14.95;48.25;100811.83;1738730;82;21736;-83
2023/04/16 12:30:57;;;;;;;10.48;2.52;;;;;;;14.93;48.81;100799.31;1738388;81;21240;-83
2023/04/16 12:34:11;;;;;;;5.05;2.10;;;;;;;14.98;49.80;100805.95;1739822;82;21240;-83
2023/04/16 12:37:15;;;;;;;4.47;2.12;;;;;;;15.00;48.85;100802.46;1738611;82;21382;-83
2023/04/16 12:40:20;;;;;;;4.55;2.20;;;;;;;15.20;49.19;100805.47;1740465;82;21185;-83
2023/04/16 12:43:27;;;;;;;12.78;2.50;;;;;;;15.29;49.09;100804.80;1740601;82;21183;-83
2023/04/16 12:46:33;;;;;;;8.73;2.45;;;;;;;15.20;49.74;100806.00;1740524;82;21193;-83
2023/04/16 12:49:40;;;;;;;6.67;2.02;;;;;;;15.15;49.32;100809.84;1740033;81;21216;-83
2023/04/16 12:52:48;;;;;;;5.10;2.33;;;;;;;15.18;48.95;100799.81;1738366;80;21218;-83
2023/04/16 12:55:53;;;;;;;7.10;2.22;;;;;;;15.09;49.99;100801.30;1737819;82;21186;-83
2023/04/16 12:58:59;;;;;;;4.40;2.25;;;;;;;15.03;50.10;100799.33;1737635;82;21313;-83
2023/04/16 13:02:08;;;;;;;5.03;2.22;;;;;;;15.00;49.70;100796.95;1737953;82;21167;-84
2023/04/16 13:05:17;;;;;;;10.63;2.37;;;;;;;14.92;50.75;100800.37;1737301;82;21230;-83
2023/04/16 13:08:22;;;;;;;6.10;2.10;;;;;;;15.05;49.57;100800.50;1736768;82;21315;-83
2023/04/16 13:11:28;;;;;;;5.08;2.60;;;;;;;15.04;49.59;100804.31;1737044;82;21269;-83
2023/04/16 13:14:33;;;;;;;6.17;2.33;;;;;;;15.13;48.72;100796.79;1737502;82;21261;-83
2023/04/16 13:17:41;;;;;;;6.45;2.27;;;;;;;14.98;49.01;100803.19;1736933;82;21241;-84
2023/04/16 13:20:47;;;;;;;10.25;2.20;;;;;;;14.98;48.28;100792.17;1736617;81;21235;-83
2023/04/16 13:23:54;;;;;;;7.28;2.12;;;;;;;14.97;48.72;100787.72;1739210;81;21190;-84
2023/04/16 13:27:00;;;;;;;6.12;2.20;;;;;;;15.21;49.33;100788.41;1736919;82;21277;-84
2023/04/16 13:30:06;;;;;;;6.40;2.25;;;;;;;15.16;48.38;100789.52;1736572;82;22249;-84
2023/04/16 13:33:14;;;;;;;4.03;1.90;;;;;;;15.06;48.49;100786.56;1737061;82;21809;-84
2023/04/16 13:36:20;;;;;;;6.75;2.77;;;;;;;15.03;48.56;100780.05;1736761;81;21225;-83
2023/04/16 13:39:25;;;;;;;6.00;1.77;;;;;;;15.05;47.74;100775.18;1736142;82;21234;-84
2023/04/16 13:42:31;;;;;;;9.20;2.30;;;;;;;15.04;48.69;100781.75;1737553;82;21177;-83
2023/04/16 13:45:35;;;;;;;5.10;2.00;;;;;;;15.02;47.06;100778.88;1736736;82;21194;-84
2023/04/16 13:48:41;;;;;;;5.67;2.20;;;;;;;15.11;46.75;100785.98;1735970;82;21809;-83
2023/04/16 13:51:46;;;;;;;5.87;2.42;;;;;;;15.11;47.19;100781.84;1736123;81;21218;-83
2023/04/16 13:54:51;;;;;;;7.40;2.27;;;;;;;15.05;47.41;100775.18;1736761;81;21261;-83
2023/04/16 13:57:58;;;;;;;3.67;1.90;;;;;;;15.00;47.40;100781.80;1767673;81;21468;-83
2023/04/16 14:01:04;;;;;;;5.10;1.92;;;;;;;14.92;46.88;100783.31;1767098;81;21202;-83
2023/04/16 14:04:09;;;;;;;4.62;1.57;;;;;;;14.97;46.61;100778.60;1767019;81;21197;-83
2023/04/16 14:07:16;;;;;;;5.47;2.30;;;;;;;14.93;47.28;100785.02;1765688;81;21233;-83
2023/04/16 14:10:22;;;;;;;7.75;1.75;;;;;;;14.99;47.02;100777.34;1738554;81;21203;-83
2023/04/16 14:13:28;;;;;;;5.20;1.95;;;;;;;15.02;47.43;100774.74;1716547;83;21266;-83
2023/04/16 14:16:34;;;;;;;16.30;2.40;;;;;;;14.82;49.10;100783.63;1716964;83;21234;-84
2023/04/16 14:19:40;;;;;;;12.23;2.45;;;;;;;14.70;49.42;100771.91;1715855;83;21818;-83
2023/04/16 14:22:47;;;;;;;2.75;1.80;;;;;;;14.66;50.34;100785.19;1750936;81;21281;-83
2023/04/16 14:25:54;;;;;;;6.55;2.30;;;;;;;14.64;50.78;100791.95;1717056;83;21277;-83